sensor_id;sensor_type;location;lat;lon;timestamp;temperature;humidity
45619;DHT22;31343;47.520;19.144;2023-07-31T00:02:01;19.60;99.90
45619;DHT22;31343;47.520;19.144;2023-07-31T00:04:27;19.60;99.90
45619;DHT22;31343;47.520;19.144;2023-07-31T00:06:55;19.50;99.90
45619;DHT22;31343;47.520;19.144;2023-07-31T00:09:26;19.50;99.90
45619;DHT22;31343;47.520;19.144;2023-07-31T00:11:59;19.60;99.90
45619;DHT22;31343;47.520;19.144;2023-07-31T00:14:37;19.60;99.90
45619;DHT22;31343;47.520;19.144;2023-07-31T00:17:06;19.60;99.90
45619;DHT22;31343;47.520;19.144;2023-07-31T00:19:33;19.60;99.90
45619;DHT22;31343;47.520;19.144;2023-07-31T00:22:06;19.60;99.90
45619;DHT22;31343;47.520;19.144;2023-07-31T00:24:37;19.60;99.90
45619;DHT22;31343;47.520;19.144;2023-07-31T00:27:04;19.60;99.90
45619;DHT22;31343;47.520;19.144;2023-07-31T00:29:30;19.60;99.90
45619;DHT22;31343;47.520;19.144;2023-07-31T00:32:03;19.60;99.90
45619;DHT22;31343;47.520;19.144;2023-07-31T00:34:33;19.60;99.90
45619;DHT22;31343;47.520;19.144;2023-07-31T00:37:14;19.60;99.90
45619;DHT22;31343;47.520;19.144;2023-07-31T00:39:41;19.60;99.90
45619;DHT22;31343;47.520;19.144;2023-07-31T00:42:14;19.70;99.90
45619;DHT22;31343;47.520;19.144;2023-07-31T00:44:42;19.60;99.90
45619;DHT22;31343;47.520;19.144;2023-07-31T00:47:08;19.60;99.90
45619;DHT22;31343;47.520;19.144;2023-07-31T00:49:35;19.50;99.90
45619;DHT22;31343;47.520;19.144;2023-07-31T00:52:05;19.50;99.90
45619;DHT22;31343;47.520;19.144;2023-07-31T00:54:31;19.40;99.90
45619;DHT22;31343;47.520;19.144;2023-07-31T00:56:57;19.50;99.90
45619;DHT22;31343;47.520;19.144;2023-07-31T00:59:24;19.50;99.90
45619;DHT22;31343;47.520;19.144;2023-07-31T01:01:53;19.50;99.90
45619;DHT22;31343;47.520;19.144;2023-07-31T01:04:26;19.50;99.90
45619;DHT22;31343;47.520;19.144;2023-07-31T01:07:47;19.50;99.90
45619;DHT22;31343;47.520;19.144;2023-07-31T01:10:30;19.50;99.90
45619;DHT22;31343;47.520;19.144;2023-07-31T01:12:59;19.50;99.90
45619;DHT22;31343;47.520;19.144;2023-07-31T01:15:27;19.60;99.90
45619;DHT22;31343;47.520;19.144;2023-07-31T01:17:58;19.60;99.90
45619;DHT22;31343;47.520;19.144;2023-07-31T01:20:27;19.60;99.90
45619;DHT22;31343;47.520;19.144;2023-07-31T01:28:20;19.60;99.90
45619;DHT22;31343;47.520;19.144;2023-07-31T01:30:49;19.50;99.90
45619;DHT22;31343;47.520;19.144;2023-07-31T01:33:20;19.60;99.90
45619;DHT22;31343;47.520;19.144;2023-07-31T01:35:47;19.50;99.90
45619;DHT22;31343;47.520;19.144;2023-07-31T01:38:20;19.50;99.90
45619;DHT22;31343;47.520;19.144;2023-07-31T01:40:51;19.50;99.90
45619;DHT22;31343;47.520;19.144;2023-07-31T01:43:22;19.50;99.90
45619;DHT22;31343;47.520;19.144;2023-07-31T01:45:50;19.50;99.90
45619;DHT22;31343;47.520;19.144;2023-07-31T01:48:18;19.40;99.90
45619;DHT22;31343;47.520;19.144;2023-07-31T01:50:45;19.40;99.90
45619;DHT22;31343;47.520;19.144;2023-07-31T01:53:10;19.50;99.90
45619;DHT22;31343;47.520;19.144;2023-07-31T01:55:39;19.50;99.90
45619;DHT22;31343;47.520;19.144;2023-07-31T01:58:11;19.40;99.90
45619;DHT22;31343;47.520;19.144;2023-07-31T02:00:39;19.40;99.90
45619;DHT22;31343;47.520;19.144;2023-07-31T02:03:11;19.40;99.90
45619;DHT22;31343;47.520;19.144;2023-07-31T02:05:45;19.40;99.90
45619;DHT22;31343;47.520;19.144;2023-07-31T02:08:13;19.40;99.90
45619;DHT22;31343;47.520;19.144;2023-07-31T02:10:38;19.50;99.90
45619;DHT22;31343;47.520;19.144;2023-07-31T02:13:05;19.40;99.90
45619;DHT22;31343;47.520;19.144;2023-07-31T02:15:31;19.40;99.90
45619;DHT22;31343;47.520;19.144;2023-07-31T02:17:58;19.40;99.90
45619;DHT22;31343;47.520;19.144;2023-07-31T02:20:23;19.40;99.90
45619;DHT22;31343;47.520;19.144;2023-07-31T02:22:49;19.40;99.90
45619;DHT22;31343;47.520;19.144;2023-07-31T02:25:15;19.50;99.90
45619;DHT22;31343;47.520;19.144;2023-07-31T02:27:42;19.40;99.90
45619;DHT22;31343;47.520;19.144;2023-07-31T02:30:08;19.40;99.90
45619;DHT22;31343;47.520;19.144;2023-07-31T02:32:35;19.30;99.90
45619;DHT22;31343;47.520;19.144;2023-07-31T02:35:01;19.30;99.90
45619;DHT22;31343;47.520;19.144;2023-07-31T02:37:32;19.30;99.90
45619;DHT22;31343;47.520;19.144;2023-07-31T02:39:58;19.20;99.90
45619;DHT22;31343;47.520;19.144;2023-07-31T02:42:26;19.30;99.90
45619;DHT22;31343;47.520;19.144;2023-07-31T02:44:53;19.20;99.90
45619;DHT22;31343;47.520;19.144;2023-07-31T02:47:22;19.20;99.90
45619;DHT22;31343;47.520;19.144;2023-07-31T02:49:49;19.20;99.90
45619;DHT22;31343;47.520;19.144;2023-07-31T02:52:15;19.20;99.90
45619;DHT22;31343;47.520;19.144;2023-07-31T02:54:43;19.20;99.90
45619;DHT22;31343;47.520;19.144;2023-07-31T02:57:09;19.10;99.90
45619;DHT22;31343;47.520;19.144;2023-07-31T02:59:36;19.10;99.90
45619;DHT22;31343;47.520;19.144;2023-07-31T03:02:02;19.10;99.90
45619;DHT22;31343;47.520;19.144;2023-07-31T03:04:28;19.10;99.90
45619;DHT22;31343;47.520;19.144;2023-07-31T03:06:54;19.10;99.90
45619;DHT22;31343;47.520;19.144;2023-07-31T03:09:25;19.10;99.90
45619;DHT22;31343;47.520;19.144;2023-07-31T03:11:53;19.10;99.90
45619;DHT22;31343;47.520;19.144;2023-07-31T03:14:21;19.10;99.90
45619;DHT22;31343;47.520;19.144;2023-07-31T03:16:47;19.00;99.90
45619;DHT22;31343;47.520;19.144;2023-07-31T03:19:14;19.00;99.90
45619;DHT22;31343;47.520;19.144;2023-07-31T03:21:46;19.00;99.90
45619;DHT22;31343;47.520;19.144;2023-07-31T03:24:12;19.10;99.90
45619;DHT22;31343;47.520;19.144;2023-07-31T03:26:43;19.10;99.90
45619;DHT22;31343;47.520;19.144;2023-07-31T03:29:09;19.00;99.90
45619;DHT22;31343;47.520;19.144;2023-07-31T03:31:34;19.10;99.90
45619;DHT22;31343;47.520;19.144;2023-07-31T03:34:00;19.00;99.90
45619;DHT22;31343;47.520;19.144;2023-07-31T03:36:31;19.10;99.90
45619;DHT22;31343;47.520;19.144;2023-07-31T03:38:57;19.10;99.90
45619;DHT22;31343;47.520;19.144;2023-07-31T03:41:30;19.10;99.90
45619;DHT22;31343;47.520;19.144;2023-07-31T03:43:56;19.20;99.90
45619;DHT22;31343;47.520;19.144;2023-07-31T03:46:23;19.20;99.90
45619;DHT22;31343;47.520;19.144;2023-07-31T03:48:49;19.20;99.90
45619;DHT22;31343;47.520;19.144;2023-07-31T03:51:16;19.20;99.90
45619;DHT22;31343;47.520;19.144;2023-07-31T03:53:47;19.20;99.90
45619;DHT22;31343;47.520;19.144;2023-07-31T03:56:14;19.20;99.90
45619;DHT22;31343;47.520;19.144;2023-07-31T03:58:41;19.20;99.90
45619;DHT22;31343;47.520;19.144;2023-07-31T04:01:07;19.20;99.90
45619;DHT22;31343;47.520;19.144;2023-07-31T04:03:33;19.30;99.90
45619;DHT22;31343;47.520;19.144;2023-07-31T04:05:58;19.30;99.90
45619;DHT22;31343;47.520;19.144;2023-07-31T04:08:24;19.40;99.90
45619;DHT22;31343;47.520;19.144;2023-07-31T04:10:52;19.40;99.90
45619;DHT22;31343;47.520;19.144;2023-07-31T04:13:19;19.60;99.90
45619;DHT22;31343;47.520;19.144;2023-07-31T04:15:49;19.70;99.90
45619;DHT22;31343;47.520;19.144;2023-07-31T04:18:16;19.70;99.90
45619;DHT22;31343;47.520;19.144;2023-07-31T04:20:44;19.70;99.90
45619;DHT22;31343;47.520;19.144;2023-07-31T04:23:10;19.80;99.90
45619;DHT22;31343;47.520;19.144;2023-07-31T04:25:35;19.90;99.90
45619;DHT22;31343;47.520;19.144;2023-07-31T04:28:01;19.90;99.90
45619;DHT22;31343;47.520;19.144;2023-07-31T04:30:29;20.00;99.90
45619;DHT22;31343;47.520;19.144;2023-07-31T04:32:55;20.00;99.90
45619;DHT22;31343;47.520;19.144;2023-07-31T04:35:20;20.10;99.90
45619;DHT22;31343;47.520;19.144;2023-07-31T04:37:47;20.10;99.90
45619;DHT22;31343;47.520;19.144;2023-07-31T04:40:16;20.20;99.90
45619;DHT22;31343;47.520;19.144;2023-07-31T04:42:42;20.20;99.90
45619;DHT22;31343;47.520;19.144;2023-07-31T04:45:09;20.10;99.90
45619;DHT22;31343;47.520;19.144;2023-07-31T04:47:37;20.10;99.90
45619;DHT22;31343;47.520;19.144;2023-07-31T04:50:04;20.20;99.90
45619;DHT22;31343;47.520;19.144;2023-07-31T04:52:31;20.30;99.90
45619;DHT22;31343;47.520;19.144;2023-07-31T04:54:57;20.30;99.90
45619;DHT22;31343;47.520;19.144;2023-07-31T04:57:23;20.30;99.90
45619;DHT22;31343;47.520;19.144;2023-07-31T04:59:52;20.30;99.90
45619;DHT22;31343;47.520;19.144;2023-07-31T05:02:18;20.40;99.90
45619;DHT22;31343;47.520;19.144;2023-07-31T05:04:47;20.40;99.90
45619;DHT22;31343;47.520;19.144;2023-07-31T05:07:19;20.40;99.90
45619;DHT22;31343;47.520;19.144;2023-07-31T05:09:45;20.40;99.90
45619;DHT22;31343;47.520;19.144;2023-07-31T05:12:11;20.50;99.90
45619;DHT22;31343;47.520;19.144;2023-07-31T05:14:38;20.60;99.90
45619;DHT22;31343;47.520;19.144;2023-07-31T05:17:15;20.70;99.90
45619;DHT22;31343;47.520;19.144;2023-07-31T05:19:41;20.80;99.90
45619;DHT22;31343;47.520;19.144;2023-07-31T05:22:08;20.90;99.90
45619;DHT22;31343;47.520;19.144;2023-07-31T05:24:36;20.90;99.90
45619;DHT22;31343;47.520;19.144;2023-07-31T05:27:02;21.10;99.90
45619;DHT22;31343;47.520;19.144;2023-07-31T05:29:30;21.60;99.90
45619;DHT22;31343;47.520;19.144;2023-07-31T05:31:56;22.20;99.90
45619;DHT22;31343;47.520;19.144;2023-07-31T05:34:23;22.80;99.90
45619;DHT22;31343;47.520;19.144;2023-07-31T05:36:48;23.20;99.90
45619;DHT22;31343;47.520;19.144;2023-07-31T05:39:17;22.60;99.90
45619;DHT22;31343;47.520;19.144;2023-07-31T05:41:45;22.70;99.90
45619;DHT22;31343;47.520;19.144;2023-07-31T05:44:13;23.40;99.90
45619;DHT22;31343;47.520;19.144;2023-07-31T05:46:38;24.60;99.90
45619;DHT22;31343;47.520;19.144;2023-07-31T05:49:04;25.70;98.40
45619;DHT22;31343;47.520;19.144;2023-07-31T05:51:31;25.70;97.20
45619;DHT22;31343;47.520;19.144;2023-07-31T05:53:57;25.20;97.30
45619;DHT22;31343;47.520;19.144;2023-07-31T05:56:22;24.80;97.60
45619;DHT22;31343;47.520;19.144;2023-07-31T05:58:49;24.80;97.90
45619;DHT22;31343;47.520;19.144;2023-07-31T06:01:17;25.80;96.80
45619;DHT22;31343;47.520;19.144;2023-07-31T06:03:47;26.40;95.60
45619;DHT22;31343;47.520;19.144;2023-07-31T06:06:12;27.00;94.60
45619;DHT22;31343;47.520;19.144;2023-07-31T06:08:39;27.00;93.80
45619;DHT22;31343;47.520;19.144;2023-07-31T06:11:08;26.30;94.20
45619;DHT22;31343;47.520;19.144;2023-07-31T06:13:36;25.70;95.00
45619;DHT22;31343;47.520;19.144;2023-07-31T06:16:02;25.30;95.50
45619;DHT22;31343;47.520;19.144;2023-07-31T06:18:32;26.60;95.10
45619;DHT22;31343;47.520;19.144;2023-07-31T06:20:58;27.00;93.90
45619;DHT22;31343;47.520;19.144;2023-07-31T06:23:24;26.90;93.90
45619;DHT22;31343;47.520;19.144;2023-07-31T06:25:49;26.20;94.00
45619;DHT22;31343;47.520;19.144;2023-07-31T06:28:16;25.50;95.10
45619;DHT22;31343;47.520;19.144;2023-07-31T06:30:42;25.60;95.40
45619;DHT22;31343;47.520;19.144;2023-07-31T06:33:09;25.70;95.40
45619;DHT22;31343;47.520;19.144;2023-07-31T06:35:36;25.80;95.20
45619;DHT22;31343;47.520;19.144;2023-07-31T06:38:02;26.40;94.50
45619;DHT22;31343;47.520;19.144;2023-07-31T06:40:29;26.50;93.90
45619;DHT22;31343;47.520;19.144;2023-07-31T06:42:55;27.10;93.50
45619;DHT22;31343;47.520;19.144;2023-07-31T06:45:21;27.50;92.60
45619;DHT22;31343;47.520;19.144;2023-07-31T06:47:49;27.80;92.40
45619;DHT22;31343;47.520;19.144;2023-07-31T06:50:17;27.60;92.10
45619;DHT22;31343;47.520;19.144;2023-07-31T06:52:43;27.60;92.10
45619;DHT22;31343;47.520;19.144;2023-07-31T06:55:17;27.50;92.20
45619;DHT22;31343;47.520;19.144;2023-07-31T06:57:44;27.70;91.90
45619;DHT22;31343;47.520;19.144;2023-07-31T07:00:10;27.40;92.20
45619;DHT22;31343;47.520;19.144;2023-07-31T07:02:37;26.50;92.10
45619;DHT22;31343;47.520;19.144;2023-07-31T07:05:03;26.20;93.00
45619;DHT22;31343;47.520;19.144;2023-07-31T07:07:30;25.90;93.20
45619;DHT22;31343;47.520;19.144;2023-07-31T07:09:55;25.90;93.70
45619;DHT22;31343;47.520;19.144;2023-07-31T07:12:22;25.90;93.60
45619;DHT22;31343;47.520;19.144;2023-07-31T07:14:48;26.00;93.60
45619;DHT22;31343;47.520;19.144;2023-07-31T07:17:14;26.20;93.90
45619;DHT22;31343;47.520;19.144;2023-07-31T07:19:40;25.80;93.50
45619;DHT22;31343;47.520;19.144;2023-07-31T07:22:07;25.50;93.90
45619;DHT22;31343;47.520;19.144;2023-07-31T07:24:33;25.60;93.90
45619;DHT22;31343;47.520;19.144;2023-07-31T07:26:58;25.60;93.60
45619;DHT22;31343;47.520;19.144;2023-07-31T07:29:25;25.70;93.80
45619;DHT22;31343;47.520;19.144;2023-07-31T07:31:53;25.80;93.90
45619;DHT22;31343;47.520;19.144;2023-07-31T07:34:22;25.70;93.20
45619;DHT22;31343;47.520;19.144;2023-07-31T07:36:48;25.50;92.80
45619;DHT22;31343;47.520;19.144;2023-07-31T07:39:14;25.90;92.90
45619;DHT22;31343;47.520;19.144;2023-07-31T07:41:40;26.50;92.00
45619;DHT22;31343;47.520;19.144;2023-07-31T07:44:05;27.00;91.50
45619;DHT22;31343;47.520;19.144;2023-07-31T07:46:33;27.20;91.10
45619;DHT22;31343;47.520;19.144;2023-07-31T07:48:59;27.00;90.40
45619;DHT22;31343;47.520;19.144;2023-07-31T07:51:25;27.00;90.60
45619;DHT22;31343;47.520;19.144;2023-07-31T07:53:51;27.20;89.70
45619;DHT22;31343;47.520;19.144;2023-07-31T07:56:16;27.60;89.10
45619;DHT22;31343;47.520;19.144;2023-07-31T07:58:42;28.30;90.00
45619;DHT22;31343;47.520;19.144;2023-07-31T08:01:08;28.10;89.60
45619;DHT22;31343;47.520;19.144;2023-07-31T08:03:36;28.50;90.00
45619;DHT22;31343;47.520;19.144;2023-07-31T08:06:02;28.20;89.80
45619;DHT22;31343;47.520;19.144;2023-07-31T08:08:30;27.80;88.20
45619;DHT22;31343;47.520;19.144;2023-07-31T08:10:56;27.30;90.00
45619;DHT22;31343;47.520;19.144;2023-07-31T08:13:23;26.60;90.40
45619;DHT22;31343;47.520;19.144;2023-07-31T08:15:49;26.40;90.20
45619;DHT22;31343;47.520;19.144;2023-07-31T08:18:14;26.50;89.70
45619;DHT22;31343;47.520;19.144;2023-07-31T08:20:41;27.00;88.10
45619;DHT22;31343;47.520;19.144;2023-07-31T08:23:07;27.70;86.10
45619;DHT22;31343;47.520;19.144;2023-07-31T08:25:35;28.50;83.20
45619;DHT22;31343;47.520;19.144;2023-07-31T08:28:02;28.80;81.30
45619;DHT22;31343;47.520;19.144;2023-07-31T08:30:27;28.90;79.10
45619;DHT22;31343;47.520;19.144;2023-07-31T08:32:53;29.10;79.70
45619;DHT22;31343;47.520;19.144;2023-07-31T08:35:19;29.00;78.40
45619;DHT22;31343;47.520;19.144;2023-07-31T08:37:46;29.20;78.80
45619;DHT22;31343;47.520;19.144;2023-07-31T08:40:11;29.40;78.10
45619;DHT22;31343;47.520;19.144;2023-07-31T08:42:46;29.80;78.30
45619;DHT22;31343;47.520;19.144;2023-07-31T08:45:17;29.90;77.90
45619;DHT22;31343;47.520;19.144;2023-07-31T08:47:48;30.10;76.20
45619;DHT22;31343;47.520;19.144;2023-07-31T08:50:18;30.20;77.00
45619;DHT22;31343;47.520;19.144;2023-07-31T08:52:50;29.60;74.90
45619;DHT22;31343;47.520;19.144;2023-07-31T08:55:16;29.40;74.90
45619;DHT22;31343;47.520;19.144;2023-07-31T08:57:42;29.10;75.80
45619;DHT22;31343;47.520;19.144;2023-07-31T09:00:10;29.00;74.90
45619;DHT22;31343;47.520;19.144;2023-07-31T09:05:12;28.80;76.20
45619;DHT22;31343;47.520;19.144;2023-07-31T09:07:39;28.80;78.30
45619;DHT22;31343;47.520;19.144;2023-07-31T09:10:06;28.60;76.50
45619;DHT22;31343;47.520;19.144;2023-07-31T09:12:34;28.40;77.20
45619;DHT22;31343;47.520;19.144;2023-07-31T09:15:01;28.40;78.20
45619;DHT22;31343;47.520;19.144;2023-07-31T09:19:56;28.00;77.70
45619;DHT22;31343;47.520;19.144;2023-07-31T09:22:33;28.00;77.90
45619;DHT22;31343;47.520;19.144;2023-07-31T09:25:15;27.80;77.90
45619;DHT22;31343;47.520;19.144;2023-07-31T09:27:51;27.80;77.60
45619;DHT22;31343;47.520;19.144;2023-07-31T09:30:22;27.70;77.70
45619;DHT22;31343;47.520;19.144;2023-07-31T09:32:49;27.60;78.20
45619;DHT22;31343;47.520;19.144;2023-07-31T09:35:28;27.60;78.70
45619;DHT22;31343;47.520;19.144;2023-07-31T09:37:57;27.40;77.90
45619;DHT22;31343;47.520;19.144;2023-07-31T09:40:30;27.30;77.10
45619;DHT22;31343;47.520;19.144;2023-07-31T09:42:58;27.30;79.20
45619;DHT22;31343;47.520;19.144;2023-07-31T09:45:24;27.30;79.90
45619;DHT22;31343;47.520;19.144;2023-07-31T09:47:50;27.20;80.00
45619;DHT22;31343;47.520;19.144;2023-07-31T09:50:20;27.50;80.30
45619;DHT22;31343;47.520;19.144;2023-07-31T09:52:46;27.60;80.80
45619;DHT22;31343;47.520;19.144;2023-07-31T09:55:12;27.80;79.60
45619;DHT22;31343;47.520;19.144;2023-07-31T09:57:40;27.90;80.60
45619;DHT22;31343;47.520;19.144;2023-07-31T10:00:10;28.00;79.30
45619;DHT22;31343;47.520;19.144;2023-07-31T10:02:37;27.90;78.20
45619;DHT22;31343;47.520;19.144;2023-07-31T10:05:05;27.60;78.50
45619;DHT22;31343;47.520;19.144;2023-07-31T10:07:33;27.60;79.20
45619;DHT22;31343;47.520;19.144;2023-07-31T10:10:00;27.50;79.20
45619;DHT22;31343;47.520;19.144;2023-07-31T10:12:27;27.60;79.30
45619;DHT22;31343;47.520;19.144;2023-07-31T10:14:56;27.60;79.00
45619;DHT22;31343;47.520;19.144;2023-07-31T10:17:26;27.70;78.50
45619;DHT22;31343;47.520;19.144;2023-07-31T10:19:53;27.80;77.50
45619;DHT22;31343;47.520;19.144;2023-07-31T10:22:22;27.90;77.00
45619;DHT22;31343;47.520;19.144;2023-07-31T10:24:49;27.90;77.70
45619;DHT22;31343;47.520;19.144;2023-07-31T10:27:17;28.00;78.20
45619;DHT22;31343;47.520;19.144;2023-07-31T10:29:45;28.10;78.70
45619;DHT22;31343;47.520;19.144;2023-07-31T10:32:13;28.00;78.60
45619;DHT22;31343;47.520;19.144;2023-07-31T10:34:41;28.10;77.90
45619;DHT22;31343;47.520;19.144;2023-07-31T10:37:40;28.00;78.10
45619;DHT22;31343;47.520;19.144;2023-07-31T10:40:11;28.00;77.90
45619;DHT22;31343;47.520;19.144;2023-07-31T10:48:03;28.10;78.10
45619;DHT22;31343;47.520;19.144;2023-07-31T10:50:54;28.10;78.70
45619;DHT22;31343;47.520;19.144;2023-07-31T10:53:31;28.10;78.40
45619;DHT22;31343;47.520;19.144;2023-07-31T10:55:59;28.20;79.10
45619;DHT22;31343;47.520;19.144;2023-07-31T10:58:26;28.40;78.90
45619;DHT22;31343;47.520;19.144;2023-07-31T11:00:56;28.70;78.70
45619;DHT22;31343;47.520;19.144;2023-07-31T11:03:26;28.60;77.40
45619;DHT22;31343;47.520;19.144;2023-07-31T11:06:02;28.70;77.20
45619;DHT22;31343;47.520;19.144;2023-07-31T11:08:30;28.50;77.40
45619;DHT22;31343;47.520;19.144;2023-07-31T11:11:05;28.70;78.80
45619;DHT22;31343;47.520;19.144;2023-07-31T11:13:54;28.90;77.70
45619;DHT22;31343;47.520;19.144;2023-07-31T11:16:24;28.70;76.00
45619;DHT22;31343;47.520;19.144;2023-07-31T11:18:52;28.80;76.30
45619;DHT22;31343;47.520;19.144;2023-07-31T11:21:21;28.60;76.20
45619;DHT22;31343;47.520;19.144;2023-07-31T11:23:50;28.90;76.80
45619;DHT22;31343;47.520;19.144;2023-07-31T11:26:18;30.00;75.90
45619;DHT22;31343;47.520;19.144;2023-07-31T11:28:46;30.80;74.90
45619;DHT22;31343;47.520;19.144;2023-07-31T11:31:13;31.90;72.60
45619;DHT22;31343;47.520;19.144;2023-07-31T11:33:39;31.90;71.00
45619;DHT22;31343;47.520;19.144;2023-07-31T11:36:06;32.10;71.60
45619;DHT22;31343;47.520;19.144;2023-07-31T11:38:39;32.30;70.70
45619;DHT22;31343;47.520;19.144;2023-07-31T11:41:06;32.40;69.60
45619;DHT22;31343;47.520;19.144;2023-07-31T11:43:32;32.70;70.00
45619;DHT22;31343;47.520;19.144;2023-07-31T11:45:59;33.30;68.70
45619;DHT22;31343;47.520;19.144;2023-07-31T11:48:33;34.10;68.60
45619;DHT22;31343;47.520;19.144;2023-07-31T11:51:05;34.40;65.40
45619;DHT22;31343;47.520;19.144;2023-07-31T11:53:44;34.80;64.10
45619;DHT22;31343;47.520;19.144;2023-07-31T11:56:19;35.00;64.50
45619;DHT22;31343;47.520;19.144;2023-07-31T11:58:47;35.20;63.60
45619;DHT22;31343;47.520;19.144;2023-07-31T12:01:18;35.30;62.80
45619;DHT22;31343;47.520;19.144;2023-07-31T12:03:45;35.60;62.20
45619;DHT22;31343;47.520;19.144;2023-07-31T12:06:11;34.80;62.40
45619;DHT22;31343;47.520;19.144;2023-07-31T12:08:37;35.00;63.30
45619;DHT22;31343;47.520;19.144;2023-07-31T12:11:05;35.40;63.10
45619;DHT22;31343;47.520;19.144;2023-07-31T12:13:33;36.10;62.40
45619;DHT22;31343;47.520;19.144;2023-07-31T12:16:00;36.00;60.80
45619;DHT22;31343;47.520;19.144;2023-07-31T12:18:30;35.50;61.00
45619;DHT22;31343;47.520;19.144;2023-07-31T12:21:00;35.60;61.20
45619;DHT22;31343;47.520;19.144;2023-07-31T12:23:31;35.30;61.70
45619;DHT22;31343;47.520;19.144;2023-07-31T12:28:30;35.40;61.60
45619;DHT22;31343;47.520;19.144;2023-07-31T12:31:00;35.80;60.60
45619;DHT22;31343;47.520;19.144;2023-07-31T12:33:35;35.60;59.90
45619;DHT22;31343;47.520;19.144;2023-07-31T12:36:07;35.90;59.30
45619;DHT22;31343;47.520;19.144;2023-07-31T12:38:33;35.90;59.30
45619;DHT22;31343;47.520;19.144;2023-07-31T12:40:59;36.20;58.00
45619;DHT22;31343;47.520;19.144;2023-07-31T12:43:25;35.90;58.10
45619;DHT22;31343;47.520;19.144;2023-07-31T12:45:53;35.70;58.20
45619;DHT22;31343;47.520;19.144;2023-07-31T12:48:19;36.20;58.40
45619;DHT22;31343;47.520;19.144;2023-07-31T12:50:45;36.00;57.70
45619;DHT22;31343;47.520;19.144;2023-07-31T12:53:12;35.60;58.40
45619;DHT22;31343;47.520;19.144;2023-07-31T12:55:40;35.30;58.90
45619;DHT22;31343;47.520;19.144;2023-07-31T12:58:06;35.00;60.20
45619;DHT22;31343;47.520;19.144;2023-07-31T13:00:32;34.70;60.10
45619;DHT22;31343;47.520;19.144;2023-07-31T13:02:58;33.60;61.40
45619;DHT22;31343;47.520;19.144;2023-07-31T13:05:27;33.10;62.20
45619;DHT22;31343;47.520;19.144;2023-07-31T13:07:53;32.50;62.30
45619;DHT22;31343;47.520;19.144;2023-07-31T13:10:21;31.80;62.20
45619;DHT22;31343;47.520;19.144;2023-07-31T13:12:48;31.90;63.40
45619;DHT22;31343;47.520;19.144;2023-07-31T13:15:15;31.60;63.00
45619;DHT22;31343;47.520;19.144;2023-07-31T13:17:42;31.20;64.50
45619;DHT22;31343;47.520;19.144;2023-07-31T13:20:10;31.30;63.80
45619;DHT22;31343;47.520;19.144;2023-07-31T13:22:36;31.00;64.30
45619;DHT22;31343;47.520;19.144;2023-07-31T13:25:02;30.60;64.40
45619;DHT22;31343;47.520;19.144;2023-07-31T13:27:28;30.40;64.80
45619;DHT22;31343;47.520;19.144;2023-07-31T13:29:54;30.50;65.30
45619;DHT22;31343;47.520;19.144;2023-07-31T13:32:21;30.30;64.90
45619;DHT22;31343;47.520;19.144;2023-07-31T13:34:48;30.20;64.60
45619;DHT22;31343;47.520;19.144;2023-07-31T13:37:14;29.90;65.60
45619;DHT22;31343;47.520;19.144;2023-07-31T13:39:42;29.20;66.30
45619;DHT22;31343;47.520;19.144;2023-07-31T13:42:08;29.20;67.70
45619;DHT22;31343;47.520;19.144;2023-07-31T13:44:38;29.30;67.90
45619;DHT22;31343;47.520;19.144;2023-07-31T13:47:05;29.40;67.10
45619;DHT22;31343;47.520;19.144;2023-07-31T13:49:31;29.30;67.80
45619;DHT22;31343;47.520;19.144;2023-07-31T13:51:58;29.40;66.70
45619;DHT22;31343;47.520;19.144;2023-07-31T13:54:25;29.30;66.70
45619;DHT22;31343;47.520;19.144;2023-07-31T13:56:52;29.30;66.50
45619;DHT22;31343;47.520;19.144;2023-07-31T13:59:19;29.00;66.80
45619;DHT22;31343;47.520;19.144;2023-07-31T14:01:46;28.90;67.70
45619;DHT22;31343;47.520;19.144;2023-07-31T14:04:12;28.70;66.80
45619;DHT22;31343;47.520;19.144;2023-07-31T14:06:38;28.60;67.30
45619;DHT22;31343;47.520;19.144;2023-07-31T14:09:05;28.50;67.60
45619;DHT22;31343;47.520;19.144;2023-07-31T14:11:32;28.40;67.30
45619;DHT22;31343;47.520;19.144;2023-07-31T14:13:58;28.50;67.90
45619;DHT22;31343;47.520;19.144;2023-07-31T14:16:25;28.50;67.80
45619;DHT22;31343;47.520;19.144;2023-07-31T14:18:50;28.60;67.20
45619;DHT22;31343;47.520;19.144;2023-07-31T14:21:16;28.70;67.20
45619;DHT22;31343;47.520;19.144;2023-07-31T14:23:45;28.60;67.60
45619;DHT22;31343;47.520;19.144;2023-07-31T14:26:14;28.60;66.90
45619;DHT22;31343;47.520;19.144;2023-07-31T14:28:41;28.60;67.20
45619;DHT22;31343;47.520;19.144;2023-07-31T14:31:09;28.60;67.40
45619;DHT22;31343;47.520;19.144;2023-07-31T14:33:36;28.40;67.20
45619;DHT22;31343;47.520;19.144;2023-07-31T14:36:02;28.30;68.30
45619;DHT22;31343;47.520;19.144;2023-07-31T14:38:27;28.30;68.60
45619;DHT22;31343;47.520;19.144;2023-07-31T14:40:53;28.40;68.50
45619;DHT22;31343;47.520;19.144;2023-07-31T14:43:19;28.20;68.80
45619;DHT22;31343;47.520;19.144;2023-07-31T14:45:47;28.30;69.20
45619;DHT22;31343;47.520;19.144;2023-07-31T14:48:14;28.40;68.80
45619;DHT22;31343;47.520;19.144;2023-07-31T14:50:41;28.60;69.40
45619;DHT22;31343;47.520;19.144;2023-07-31T14:53:08;28.70;68.60
45619;DHT22;31343;47.520;19.144;2023-07-31T14:55:35;28.60;69.00
45619;DHT22;31343;47.520;19.144;2023-07-31T14:58:00;28.50;68.00
45619;DHT22;31343;47.520;19.144;2023-07-31T15:00:26;28.40;68.60
45619;DHT22;31343;47.520;19.144;2023-07-31T15:02:52;28.20;68.40
45619;DHT22;31343;47.520;19.144;2023-07-31T15:05:20;28.20;69.20
45619;DHT22;31343;47.520;19.144;2023-07-31T15:07:45;28.10;68.50
45619;DHT22;31343;47.520;19.144;2023-07-31T15:10:11;27.90;69.20
45619;DHT22;31343;47.520;19.144;2023-07-31T15:12:40;27.90;68.70
45619;DHT22;31343;47.520;19.144;2023-07-31T15:15:06;27.80;68.50
45619;DHT22;31343;47.520;19.144;2023-07-31T15:17:32;27.80;68.80
45619;DHT22;31343;47.520;19.144;2023-07-31T15:20:03;27.80;69.00
45619;DHT22;31343;47.520;19.144;2023-07-31T15:22:30;27.90;69.10
45619;DHT22;31343;47.520;19.144;2023-07-31T15:24:56;27.90;69.10
45619;DHT22;31343;47.520;19.144;2023-07-31T15:27:22;27.90;69.10
45619;DHT22;31343;47.520;19.144;2023-07-31T15:29:50;27.90;69.00
45619;DHT22;31343;47.520;19.144;2023-07-31T15:32:19;27.50;68.90
45619;DHT22;31343;47.520;19.144;2023-07-31T15:34:55;27.40;69.80
45619;DHT22;31343;47.520;19.144;2023-07-31T15:37:21;27.50;69.90
45619;DHT22;31343;47.520;19.144;2023-07-31T15:39:48;27.50;69.60